createdAt,value
2016-05-29T00:02:04.735Z,1005.96
2016-05-29T00:05:18.618Z,1005.88
2016-05-29T00:08:35.767Z,1005.82
2016-05-29T00:11:40.431Z,1005.82
2016-05-29T00:14:54.066Z,1005.64
2016-05-29T00:18:07.778Z,1005.74
2016-05-29T00:21:19.083Z,1005.74
2016-05-29T00:24:36.591Z,1005.7
2016-05-29T00:27:41.240Z,1005.66
2016-05-29T00:30:54.657Z,1005.74
2016-05-29T00:34:08.102Z,1005.54
2016-05-29T00:37:21.657Z,1005.5
2016-05-29T00:40:39.165Z,1005.62
2016-05-29T00:43:43.923Z,1005.52
2016-05-29T00:46:57.434Z,1005.44
2016-05-29T00:50:10.911Z,1005.28
2016-05-29T00:53:22.231Z,1005.14
2016-05-29T00:56:39.458Z,1005.08
2016-05-29T00:59:43.044Z,1005.2
2016-05-29T01:02:57.243Z,1005.08
2016-05-29T01:06:09.360Z,1005.22
2016-05-29T01:09:22.181Z,1005.14
2016-05-29T01:12:39.282Z,1005.22
2016-05-29T01:15:43.728Z,1005.14
2016-05-29T01:18:57.083Z,1005.08
2016-05-29T01:22:08.481Z,1005.02
2016-05-29T01:25:21.911Z,1005.2
2016-05-29T01:28:37.732Z,1005.14
2016-05-29T01:31:42.130Z,1005.14
2016-05-29T01:34:55.251Z,1005.18
2016-05-29T01:38:08.477Z,1005.06
2016-05-29T01:41:21.720Z,1005.2
2016-05-29T01:44:38.665Z,1005.3
2016-05-29T01:47:42.908Z,1005.24
2016-05-29T01:50:55.872Z,1005.18
2016-05-29T01:54:08.880Z,1005.16
2016-05-29T01:57:22.185Z,1005.22
2016-05-29T02:00:36.286Z,1005.18
2016-05-29T02:03:40.701Z,1005.1
2016-05-29T02:06:53.789Z,1005.1
2016-05-29T02:10:06.954Z,1005.12
2016-05-29T02:13:19.993Z,1005.12
2016-05-29T02:16:36.814Z,1004.98
2016-05-29T02:19:41.056Z,1004.98
2016-05-29T02:22:51.161Z,1005.02
2016-05-29T02:26:04.450Z,1004.92
2016-05-29T02:29:17.489Z,1004.92
2016-05-29T02:32:34.451Z,1004.9
2016-05-29T02:35:42.693Z,1004.82
2016-05-29T02:38:46.873Z,1004.98
2016-05-29T02:42:00.009Z,1004.84
2016-05-29T02:45:12.829Z,1004.8
2016-05-29T02:48:25.838Z,1004.76
2016-05-29T02:51:42.673Z,1004.73
2016-05-29T02:54:46.791Z,1004.78
2016-05-29T02:57:59.958Z,1004.71
2016-05-29T03:01:12.904Z,1004.75
2016-05-29T03:04:25.943Z,1004.71
2016-05-29T03:07:43.185Z,1004.61
2016-05-29T03:10:47.521Z,1004.65
2016-05-29T03:14:00.673Z,1004.71
2016-05-29T03:17:13.822Z,1004.61
2016-05-29T03:20:26.720Z,1004.55
2016-05-29T03:23:39.682Z,1004.43
2016-05-29T03:26:52.724Z,1004.45
2016-05-29T03:30:05.497Z,1004.39
2016-05-29T03:33:18.630Z,1004.35
2016-05-29T03:36:35.529Z,1004.37
2016-05-29T03:39:39.849Z,1004.23
2016-05-29T03:42:50.701Z,1004.31
2016-05-29T03:46:03.900Z,1004.39
2016-05-29T03:49:17.204Z,1004.45
2016-05-29T03:52:34.353Z,1004.45
2016-05-29T03:55:42.611Z,1004.45
2016-05-29T03:58:46.900Z,1004.41
2016-05-29T04:01:58.911Z,1004.33
2016-05-29T04:05:13.061Z,1004.41
2016-05-29T04:08:26.272Z,1004.25
2016-05-29T04:11:43.435Z,1004.17
2016-05-29T04:14:47.881Z,1004.11
2016-05-29T04:18:01.017Z,1004.03
2016-05-29T04:21:14.197Z,1004.03
2016-05-29T04:24:27.548Z,1004.01
2016-05-29T04:27:40.682Z,1003.85
2016-05-29T04:30:53.786Z,1003.89
2016-05-29T04:34:06.998Z,1003.91
2016-05-29T04:37:20.396Z,1003.93
2016-05-29T04:40:37.623Z,1003.91
2016-05-29T04:43:42.147Z,1003.89
2016-05-29T04:46:55.532Z,1003.93
2016-05-29T04:50:08.884Z,1003.89
2016-05-29T04:53:22.298Z,1003.73
2016-05-29T04:56:39.869Z,1003.75
2016-05-29T04:59:44.314Z,1003.85
2016-05-29T05:02:57.435Z,1003.71
2016-05-29T05:06:10.958Z,1003.67
2016-05-29T05:09:24.420Z,1003.65
2016-05-29T05:12:39.537Z,1003.63
2016-05-29T05:15:44.139Z,1003.71
2016-05-29T05:18:57.259Z,1003.53
2016-05-29T05:22:10.564Z,1003.57
2016-05-29T05:25:23.979Z,1003.55
2016-05-29T05:28:41.503Z,1003.61
2016-05-29T05:31:46.244Z,1003.57
2016-05-29T05:34:59.568Z,1003.43
2016-05-29T05:38:13.122Z,1003.39
2016-05-29T05:41:26.724Z,1003.23
2016-05-29T05:44:40.154Z,1003.13
2016-05-29T05:47:51.178Z,1003.21
2016-05-29T05:51:04.877Z,1003.11
2016-05-29T05:54:18.666Z,1003.05
2016-05-29T05:57:36.189Z,1003.07
2016-05-29T06:00:41.213Z,1003.05
2016-05-29T06:03:55.224Z,1003.01
2016-05-29T06:07:09.139Z,1003.05
2016-05-29T06:10:23.365Z,1002.84
2016-05-29T06:13:39.373Z,1002.38
2016-05-29T06:16:44.990Z,1002.5
2016-05-29T06:19:57.298Z,1002.12
2016-05-29T06:23:10.697Z,1001.9
2016-05-29T06:26:26.236Z,1001.88
2016-05-29T06:29:40.634Z,1001.72
2016-05-29T06:32:55.143Z,1001.7
2016-05-29T06:36:09.638Z,1001.5
2016-05-29T06:39:24.069Z,1001.56
2016-05-29T06:42:42.342Z,1001.84
2016-05-29T06:45:48.209Z,1001.62
2016-05-29T06:49:02.813Z,1001.19
2016-05-29T06:52:17.446Z,1001.11
2016-05-29T06:55:35.752Z,1001.29
2016-05-29T06:58:41.417Z,1001.07
2016-05-29T07:01:56.080Z,1000.93
2016-05-29T07:05:10.856Z,1001.11
2016-05-29T07:08:25.536Z,1000.97
2016-05-29T07:11:40.169Z,1000.87
2016-05-29T07:14:54.849Z,1000.95
2016-05-29T07:18:08.782Z,1000.95
2016-05-29T07:21:25.071Z,1000.95
2016-05-29T07:24:40.142Z,1001.09
2016-05-29T07:27:55.244Z,1000.97
2016-05-29T07:31:10.426Z,1000.91
2016-05-29T07:34:25.670Z,1001.01
2016-05-29T07:37:42.411Z,1000.97
2016-05-29T07:40:49.060Z,1001.15
2016-05-29T07:44:04.040Z,1001.11
2016-05-29T07:47:18.829Z,1001.15
2016-05-29T07:50:37.946Z,1001.41
2016-05-29T07:53:44.657Z,1001.48
2016-05-29T07:56:59.762Z,1001.45
2016-05-29T08:00:14.942Z,1001.35
2016-05-29T08:03:34.466Z,1001.13
2016-05-29T08:06:41.599Z,1000.95
2016-05-29T08:09:56.591Z,1001.15
2016-05-29T08:13:10.664Z,1001.07
2016-05-29T08:16:26.735Z,1001.33
2016-05-29T08:19:41.915Z,1001.54
2016-05-29T08:22:57.221Z,1001.52
2016-05-29T08:26:11.543Z,1001.64
2016-05-29T08:29:26.478Z,1001.72
2016-05-29T08:32:41.194Z,1001.72
2016-05-29T08:35:56.789Z,1001.7
2016-05-29T08:39:10.927Z,1001.66
2016-05-29T08:42:26.098Z,1001.52
2016-05-29T08:45:41.420Z,1001.41
2016-05-29T08:48:56.337Z,1001.54
2016-05-29T08:52:11.177Z,1001.5
2016-05-29T08:55:26.093Z,1001.62
2016-05-29T08:58:41.023Z,1001.6
2016-05-29T09:01:56.250Z,1001.62
2016-05-29T09:05:11.322Z,1001.92
2016-05-29T09:08:23.050Z,1001.82
2016-05-29T09:11:41.604Z,1002
2016-05-29T09:14:47.425Z,1002.08
2016-05-29T09:18:01.779Z,1002.06
2016-05-29T09:21:16.038Z,1002.18
2016-05-29T09:24:30.109Z,1002.18
2016-05-29T09:27:46.554Z,1002.26
2016-05-29T09:30:56.015Z,1002.26
2016-05-29T09:34:10.417Z,1002.08
2016-05-29T09:37:25.409Z,1001.84
2016-05-29T09:40:44.151Z,1002.06
2016-05-29T09:43:50.144Z,1002.04
2016-05-29T09:47:04.967Z,1002.02
2016-05-29T09:50:19.304Z,1001.84
2016-05-29T09:53:38.076Z,1001.8
2016-05-29T09:56:44.679Z,1001.76
2016-05-29T09:59:58.078Z,1001.78
2016-05-29T10:03:12.870Z,1001.74
2016-05-29T10:06:27.503Z,1001.88
2016-05-29T10:09:42.432Z,1001.8
2016-05-29T10:12:50.191Z,1001.84
2016-05-29T10:16:02.076Z,1001.76
2016-05-29T10:19:15.397Z,1001.84
2016-05-29T10:22:30.514Z,1001.88
2016-05-29T10:25:44.756Z,1001.7
2016-05-29T10:28:59.046Z,1001.8
2016-05-29T10:32:13.275Z,1001.66
2016-05-29T10:35:27.378Z,1001.88
2016-05-29T10:38:43.260Z,1001.7
2016-05-29T10:41:49.003Z,1001.58
2016-05-29T10:45:03.607Z,1001.7
2016-05-29T10:48:15.006Z,1001.72
2016-05-29T10:51:30.561Z,1001.76
2016-05-29T10:54:43.585Z,1001.78
2016-05-29T10:57:57.968Z,1001.56
2016-05-29T11:01:12.354Z,1001.62
2016-05-29T11:04:26.596Z,1001.56
2016-05-29T11:07:46.667Z,1001.58
2016-05-29T11:10:50.628Z,1001.62
2016-05-29T11:14:04.622Z,1001.5
2016-05-29T11:17:19.068Z,1001.6
2016-05-29T11:20:31.029Z,1001.56
2016-05-29T11:23:45.038Z,1001.52
2016-05-29T11:26:59.576Z,1001.48
2016-05-29T11:30:14.229Z,1001.39
2016-05-29T11:33:28.736Z,1001.39
2016-05-29T11:36:43.167Z,1001.31
2016-05-29T11:39:57.799Z,1001.31
2016-05-29T11:43:12.575Z,1001.33
2016-05-29T11:46:27.286Z,1001.33
2016-05-29T11:49:42.123Z,1001.23
2016-05-29T11:52:56.927Z,1001.27
2016-05-29T11:56:11.595Z,1001.27
2016-05-29T11:59:26.446Z,1001.21
2016-05-29T12:02:45.908Z,1001.13
2016-05-29T12:05:51.010Z,1001.21
2016-05-29T12:09:05.708Z,1001.21
2016-05-29T12:12:20.200Z,1001.21
2016-05-29T12:15:38.850Z,1001.19
2016-05-29T12:18:45.029Z,1000.99
2016-05-29T12:21:59.897Z,1001.03
2016-05-29T12:25:14.627Z,1000.99
2016-05-29T22:29:12.174Z,1000.99
2016-05-29T22:32:25.791Z,1000.99
2016-05-29T22:35:44.349Z,1000.91
2016-05-29T22:38:50.310Z,1001.01
2016-05-29T22:42:04.335Z,1000.95
2016-05-29T22:45:18.312Z,1000.85
2016-05-29T22:48:32.162Z,1000.91
2016-05-29T22:51:46.080Z,1000.89
2016-05-29T22:54:58.761Z,1000.85
2016-05-29T22:58:11.846Z,1000.67
2016-05-29T23:01:25.104Z,1000.67
2016-05-29T23:04:43.927Z,1000.67
2016-05-29T23:07:50.185Z,1000.55
2016-05-29T23:11:04.804Z,1000.59
2016-05-29T23:14:19.608Z,1000.53
2016-05-29T23:17:31.694Z,1000.39
2016-05-29T23:20:50.908Z,1000.45
2016-05-29T23:23:57.572Z,1000.45
2016-05-29T23:27:11.033Z,1000.37
2016-05-29T23:30:23.870Z,1000.45
2016-05-29T23:33:42.490Z,1000.29
2016-05-29T23:36:48.169Z,1000.43
2016-05-29T23:39:57.990Z,1000.23
2016-05-29T23:43:12.061Z,1000.39
2016-05-29T23:46:25.929Z,1000.39
2016-05-29T23:49:43.111Z,1000.17
2016-05-29T23:52:52.150Z,1000.11
2016-05-29T23:55:57.783Z,1000.05
2016-05-29T23:59:11.963Z,999.89
